createdAt,value
2023-01-03T00:00:39.056Z,100222.50
2023-01-03T00:01:43.086Z,100214.44
2023-01-03T00:02:46.582Z,100215.41
2023-01-03T00:03:50.022Z,100217.24
2023-01-03T00:04:52.684Z,100216.36
2023-01-03T00:05:55.222Z,100216.36
2023-01-03T00:06:59.119Z,100217.36
2023-01-03T00:08:02.290Z,100207.58
2023-01-03T00:09:07.960Z,100219.16
2023-01-03T00:10:10.995Z,100216.48
2023-01-03T00:11:14.706Z,100217.47
2023-01-03T00:12:30.716Z,100217.47
2023-01-03T00:13:31.264Z,100219.27
2023-01-03T00:14:37.251Z,100213.91
2023-01-03T00:15:39.719Z,100216.70
2023-01-03T00:16:42.398Z,100218.55
2023-01-03T00:17:44.828Z,100214.98
2023-01-03T00:18:47.240Z,100217.66
2023-01-03T00:19:49.873Z,100219.50
2023-01-03T00:20:54.409Z,100221.34
2023-01-03T00:21:56.990Z,100215.09
2023-01-03T00:23:01.987Z,100211.56
2023-01-03T00:24:05.655Z,100210.71
2023-01-03T00:25:08.888Z,100209.61
2023-01-03T00:26:15.091Z,100210.59
2023-01-03T00:27:17.636Z,100205.23
2023-01-03T00:28:20.073Z,100199.20
2023-01-03T00:29:23.378Z,100199.20
2023-01-03T00:30:26.990Z,100208.65
2023-01-03T00:31:30.640Z,100186.74
2023-01-03T00:32:34.056Z,100186.74
2023-01-03T00:33:37.863Z,100212.21
2023-01-03T00:34:41.093Z,100198.78
2023-01-03T00:35:43.584Z,100205.85
2023-01-03T00:36:46.400Z,100202.43
2023-01-03T00:39:15.567Z,100192.73
2023-01-03T00:40:19.382Z,100193.50
2023-01-03T00:41:22.042Z,100191.80
2023-01-03T00:42:24.262Z,100191.80
2023-01-03T00:43:29.353Z,100189.97
2023-01-03T00:44:32.786Z,100189.97
2023-01-03T00:45:35.964Z,100185.36
2023-01-03T00:46:38.886Z,100180.95
2023-01-03T00:47:44.078Z,100182.76
2023-01-03T00:48:47.695Z,100180.07
2023-01-03T00:49:50.089Z,100172.02
2023-01-03T00:50:53.861Z,100174.81
2023-01-03T00:51:56.382Z,100173.01
2023-01-03T00:52:59.173Z,100176.54
2023-01-03T00:54:02.265Z,100171.17
2023-01-03T00:55:06.051Z,100173.86
2023-01-03T00:56:11.592Z,100168.37
2023-01-03T00:57:13.868Z,100166.56
2023-01-03T00:58:16.180Z,100160.20
2023-01-03T00:59:19.293Z,100163.77
2023-01-03T01:00:24.923Z,100163.77
2023-01-03T01:01:32.964Z,100166.45
2023-01-03T01:02:38.242Z,100161.08
2023-01-03T01:03:42.728Z,100165.45
2023-01-03T01:04:45.494Z,100160.08
2023-01-03T01:05:48.281Z,100156.55
2023-01-03T01:06:54.265Z,100160.96
2023-01-03T01:07:57.035Z,100160.96
2023-01-03T01:09:00.249Z,100160.96
2023-01-03T01:10:03.219Z,100159.13
2023-01-03T01:11:05.677Z,100160.08
2023-01-03T01:12:08.101Z,100161.92
2023-01-03T01:13:10.416Z,100160.96
2023-01-03T01:15:30.519Z,100148.56
2023-01-03T01:16:33.528Z,100147.54
2023-01-03T01:17:37.397Z,100142.16
2023-01-03T01:18:41.109Z,100145.81
2023-01-03T01:19:43.829Z,100136.80
2023-01-03T01:20:46.376Z,100135.80
2023-01-03T01:21:48.692Z,100138.48
2023-01-03T01:22:51.011Z,100130.44
2023-01-03T01:23:53.352Z,100132.16
2023-01-03T01:24:56.205Z,100129.47
2023-01-03T01:26:03.049Z,100123.25
2023-01-03T01:27:06.100Z,100121.41
2023-01-03T01:28:10.563Z,100119.69
2023-01-03T01:29:16.589Z,100117.88
2023-01-03T01:30:20.771Z,100120.56
2023-01-03T01:31:24.893Z,100119.69
2023-01-03T01:32:27.445Z,100117.00
2023-01-03T01:33:32.107Z,100110.17
2023-01-03T01:34:35.568Z,100109.83
2023-01-03T01:35:38.007Z,100107.25
2023-01-03T01:36:42.505Z,100112.63
2023-01-03T01:37:44.970Z,100107.38
2023-01-03T01:38:48.072Z,100101.01
2023-01-03T01:39:50.539Z,100106.49
2023-01-03T01:40:53.653Z,100106.49
2023-01-03T01:42:20.378Z,100104.69
2023-01-03T01:43:41.772Z,100102.00
2023-01-03T01:45:01.380Z,100100.16
2023-01-03T01:47:54.486Z,100104.75
2023-01-03T01:49:01.358Z,100105.53
2023-01-03T01:50:16.905Z,100104.80
2023-01-03T01:51:19.264Z,100101.23
2023-01-03T01:52:21.829Z,100103.92
2023-01-03T01:53:27.450Z,100104.89
2023-01-03T01:54:30.155Z,100110.26
2023-01-03T01:56:49.187Z,100094.33
2023-01-03T01:57:51.863Z,100099.63
2023-01-03T01:58:54.968Z,100094.27
2023-01-03T01:59:57.982Z,100091.69
2023-01-03T02:01:00.638Z,100093.42
2023-01-03T02:02:03.320Z,100091.58
2023-01-03T02:03:06.875Z,100084.40
2023-01-03T02:05:27.502Z,100076.29
2023-01-03T02:06:31.605Z,100075.27
2023-01-03T02:07:34.091Z,100067.21
2023-01-03T02:08:36.614Z,100068.05
2023-01-03T02:09:39.161Z,100068.17
2023-01-03T02:10:52.163Z,100063.53
2023-01-03T02:14:00.316Z,100057.37
2023-01-03T02:15:09.203Z,100058.16
2023-01-03T02:16:38.765Z,100060.00
2023-01-03T02:19:58.882Z,100051.36
2023-01-03T02:21:13.628Z,100052.30
2023-01-03T02:22:52.927Z,100053.38
2023-01-03T02:24:21.871Z,100049.93
2023-01-03T02:27:09.223Z,100057.31
2023-01-03T02:28:27.623Z,100057.37
2023-01-03T02:29:33.865Z,100052.12
2023-01-03T02:30:39.697Z,100056.61
2023-01-03T02:32:10.334Z,100051.23
2023-01-03T02:33:31.252Z,100053.08
2023-01-03T02:34:59.663Z,100047.71
2023-01-03T02:36:34.896Z,100045.03
2023-01-03T02:37:59.457Z,100039.66
2023-01-03T02:39:11.450Z,100041.47
2023-01-03T02:40:26.527Z,100039.77
2023-01-03T02:41:46.335Z,100038.14
2023-01-03T02:43:10.679Z,100036.30
2023-01-03T02:45:53.021Z,100038.23
2023-01-03T02:47:02.816Z,100026.52
2023-01-03T02:48:21.067Z,100031.05
2023-01-03T02:49:29.409Z,100026.52
2023-01-03T02:50:35.140Z,100028.25
2023-01-03T02:51:58.062Z,100028.25
2023-01-03T02:53:02.510Z,100022.88
2023-01-03T02:54:06.438Z,100022.88
2023-01-03T02:56:34.496Z,100015.78
2023-01-03T02:58:10.551Z,100015.61
2023-01-03T02:59:15.410Z,100012.93
2023-01-03T03:00:21.247Z,100014.63
2023-01-03T03:01:24.819Z,100017.30
2023-01-03T03:02:33.264Z,100010.25
2023-01-03T03:03:37.273Z,100015.50
2023-01-03T03:04:39.801Z,100016.34
2023-01-03T03:05:58.010Z,100010.01
2023-01-03T03:07:13.011Z,100011.73
2023-01-03T03:08:16.202Z,100013.42
2023-01-03T03:09:18.963Z,100013.42
2023-01-03T03:10:40.807Z,100005.25
2023-01-03T03:12:01.727Z,100000.77
2023-01-03T03:13:13.608Z,100010.53
2023-01-03T03:15:36.987Z,100001.53
2023-01-03T03:16:47.873Z,100005.25
2023-01-03T03:17:51.382Z,100006.36
2023-01-03T03:19:00.935Z,100008.52
2023-01-03T03:20:28.501Z,100007.00
2023-01-03T03:21:51.181Z,100006.36
2023-01-03T03:23:14.220Z,100000.50
2023-01-03T03:24:38.032Z,99997.28
2023-01-03T03:25:44.588Z,99991.50
2023-01-03T03:26:48.636Z,99989.17
2023-01-03T03:28:13.162Z,99992.08
2023-01-03T03:29:16.514Z,99993.16
2023-01-03T03:30:19.903Z,99985.42
2023-01-03T03:31:33.163Z,99978.48
2023-01-03T03:32:35.491Z,99988.45
2023-01-03T03:34:04.716Z,99989.41
2023-01-03T03:35:08.670Z,99977.84
2023-01-03T03:36:30.192Z,99983.31
2023-01-03T03:37:32.534Z,99985.12
2023-01-03T03:38:37.353Z,99985.23
2023-01-03T03:39:58.090Z,99988.03
2023-01-03T03:41:43.949Z,99988.14
2023-01-03T03:43:10.341Z,99980.09
2023-01-03T03:44:35.690Z,99986.42
2023-01-03T03:45:45.021Z,99978.61
2023-01-03T03:46:54.773Z,99978.72
2023-01-03T03:48:07.590Z,99975.30
2023-01-03T03:49:32.750Z,99978.10
2023-01-03T03:50:39.974Z,99978.10
2023-01-03T03:51:42.412Z,99972.82
2023-01-03T03:52:46.892Z,99971.98
2023-01-03T03:53:50.194Z,99968.45
2023-01-03T03:54:58.160Z,99966.61
2023-01-03T03:56:05.013Z,99966.61
2023-01-03T03:57:17.187Z,99962.09
2023-01-03T03:58:22.922Z,99957.72
2023-01-03T03:59:25.170Z,99952.36
2023-01-03T04:00:30.761Z,99953.20
2023-01-03T04:01:34.221Z,99952.25
2023-01-03T04:02:37.019Z,99955.77
2023-01-03T04:03:41.524Z,99953.09
2023-01-03T04:04:47.386Z,99958.45
2023-01-03T04:05:52.553Z,99955.77
2023-01-03T04:06:55.162Z,99953.09
2023-01-03T04:07:57.788Z,99952.12
2023-01-03T04:09:01.281Z,99948.60
2023-01-03T04:10:04.630Z,99951.17
2023-01-03T04:11:07.120Z,99952.02
2023-01-03T04:12:10.076Z,99943.97
2023-01-03T04:13:12.366Z,99959.09
2023-01-03T04:14:15.298Z,99958.11
2023-01-03T04:15:17.807Z,99958.11
2023-01-03T04:16:22.158Z,99947.37
2023-01-03T04:17:24.697Z,99950.94
2023-01-03T04:18:28.835Z,99951.78
2023-01-03T04:19:31.459Z,99952.66
2023-01-03T04:20:35.652Z,99942.78
2023-01-03T04:21:39.212Z,99948.98
2023-01-03T04:22:41.609Z,99942.78
2023-01-03T04:23:45.151Z,99937.41
2023-01-03T04:24:48.119Z,99936.45
2023-01-03T04:25:50.709Z,99943.62
2023-01-03T04:26:53.392Z,99940.09
2023-01-03T04:27:56.777Z,99939.98
2023-01-03T04:28:59.224Z,99933.77
2023-01-03T04:30:02.540Z,99939.98
2023-01-03T04:31:06.189Z,99922.40
2023-01-03T04:32:09.638Z,99922.40
2023-01-03T04:33:12.451Z,99934.63
2023-01-03T04:34:15.321Z,99936.45
2023-01-03T04:35:18.118Z,99933.77
2023-01-03T04:36:20.869Z,99936.45
2023-01-03T04:37:23.330Z,99933.77
2023-01-03T04:38:25.778Z,99939.14
2023-01-03T04:39:29.038Z,99936.45
2023-01-03T04:40:35.271Z,99942.78
2023-01-03T04:41:38.888Z,99939.98
2023-01-03T04:44:03.089Z,99954.54
2023-01-03T04:45:06.610Z,99955.23
2023-01-03T04:46:09.701Z,99950.83
2023-01-03T04:47:12.314Z,99956.19
2023-01-03T04:48:15.030Z,99951.67
2023-01-03T04:49:18.314Z,99944.50
2023-01-03T04:50:21.243Z,99944.50
2023-01-03T04:51:24.015Z,99946.19
2023-01-03T04:52:26.423Z,99944.39
2023-01-03T04:53:29.811Z,99944.39
2023-01-03T04:54:33.397Z,99942.55
2023-01-03T04:55:35.919Z,99936.34
2023-01-03T04:56:41.073Z,99940.83
2023-01-03T04:57:43.668Z,99935.46
2023-01-03T04:58:46.801Z,99939.02
2023-01-03T04:59:50.206Z,99933.66
2023-01-03T05:01:02.899Z,99937.19
2023-01-03T05:02:07.875Z,99931.82
2023-01-03T05:03:10.410Z,99939.02
2023-01-03T05:04:12.776Z,99939.87
2023-01-03T05:05:15.385Z,99939.87
2023-01-03T05:06:17.946Z,99931.82
2023-01-03T05:07:20.251Z,99934.50
2023-01-03T05:08:22.667Z,99931.82
2023-01-03T05:09:27.111Z,99923.77
2023-01-03T05:10:30.735Z,99922.81
2023-01-03T05:11:34.019Z,99922.81
2023-01-03T05:12:36.391Z,99917.45
2023-01-03T05:13:38.771Z,99917.45
2023-01-03T05:14:41.692Z,99916.61
2023-01-03T05:15:45.185Z,99916.61
2023-01-03T05:16:47.925Z,99917.45
2023-01-03T05:17:50.307Z,99913.92
2023-01-03T05:18:53.124Z,99908.56
2023-01-03T05:20:13.888Z,99912.93
2023-01-03T05:21:36.312Z,99913.92
2023-01-03T05:22:57.171Z,99911.24
2023-01-03T05:24:18.736Z,99909.41
2023-01-03T05:25:39.785Z,99905.96
2023-01-03T05:26:43.559Z,99905.96
2023-01-03T05:27:46.372Z,99899.02
2023-01-03T05:28:51.671Z,99896.42
2023-01-03T05:29:55.292Z,99895.58
2023-01-03T05:30:59.786Z,99887.66
2023-01-03T05:32:03.493Z,99894.85
2023-01-03T05:33:07.159Z,99898.38
2023-01-03T05:34:11.232Z,99907.27
2023-01-03T05:35:13.825Z,99908.27
2023-01-03T05:36:17.290Z,99908.27
2023-01-03T05:37:22.398Z,99912.75
2023-01-03T05:38:25.401Z,99907.38
2023-01-03T05:39:28.357Z,99903.86
2023-01-03T05:40:39.242Z,99908.38
2023-01-03T05:41:56.163Z,99903.86
2023-01-03T05:42:58.667Z,99912.86
2023-01-03T05:44:01.489Z,99892.19
2023-01-03T05:45:08.675Z,99892.19
2023-01-03T05:46:11.694Z,99908.45
2023-01-03T05:47:16.585Z,99911.14
2023-01-03T05:48:20.239Z,99913.83
2023-01-03T05:49:23.168Z,99912.13
2023-01-03T05:50:25.661Z,99911.26
2023-01-03T05:51:28.267Z,99918.34
2023-01-03T05:52:30.821Z,99918.45
2023-01-03T05:53:34.760Z,99914.93
2023-01-03T05:54:37.497Z,99911.38
2023-01-03T05:55:40.104Z,99909.65
2023-01-03T05:56:43.783Z,99910.64
2023-01-03T05:57:47.080Z,99909.77
2023-01-03T05:58:49.670Z,99908.08
2023-01-03T05:59:52.814Z,99906.36
2023-01-03T06:00:57.535Z,99903.67
2023-01-03T06:02:01.349Z,99907.31
2023-01-03T06:03:05.036Z,99909.16
2023-01-03T06:04:07.753Z,99907.43
2023-01-03T06:05:10.573Z,99918.16
2023-01-03T06:06:15.037Z,99907.43
2023-01-03T06:07:17.455Z,99912.80
2023-01-03T06:08:20.842Z,99912.80
2023-01-03T06:09:23.441Z,99910.11
2023-01-03T06:10:27.009Z,99910.11
2023-01-03T06:11:30.082Z,99913.64
2023-01-03T06:12:33.723Z,99909.77
2023-01-03T06:13:36.070Z,99919.95
2023-01-03T06:14:39.533Z,99919.00
2023-01-03T06:15:42.005Z,99911.91
2023-01-03T06:17:05.646Z,99911.91
2023-01-03T06:18:09.056Z,99916.31
2023-01-03T06:19:12.672Z,99918.04
2023-01-03T06:20:16.555Z,99910.95
2023-01-03T06:21:19.765Z,99913.52
2023-01-03T06:22:23.494Z,99917.08
2023-01-03T06:23:25.968Z,99917.92
2023-01-03T06:24:29.618Z,99920.48
2023-01-03T06:25:32.107Z,99920.48
2023-01-03T06:26:34.724Z,99932.09
2023-01-03T06:27:37.025Z,99936.47
2023-01-03T06:28:39.913Z,99921.25
2023-01-03T06:29:42.516Z,99919.53
2023-01-03T06:30:46.049Z,99930.14
2023-01-03T06:31:49.279Z,99917.61
2023-01-03T06:32:53.801Z,99914.81
2023-01-03T06:33:56.419Z,99923.82
2023-01-03T06:34:59.060Z,99915.78
2023-01-03T06:36:07.354Z,99911.26
2023-01-03T06:37:10.741Z,99912.98
2023-01-03T06:38:13.240Z,99914.81
2023-01-03T06:39:16.099Z,99918.34
2023-01-03T06:40:18.803Z,99911.14
2023-01-03T06:41:21.596Z,99910.18
2023-01-03T06:42:38.772Z,99911.06
2023-01-03T06:43:41.562Z,99918.98
2023-01-03T06:44:44.269Z,99913.73
2023-01-03T06:46:05.393Z,99912.75
2023-01-03T06:47:27.618Z,99918.11
2023-01-03T06:48:49.165Z,99912.75
2023-01-03T06:50:09.966Z,99911.06
2023-01-03T06:51:31.736Z,99909.34
2023-01-03T06:52:53.670Z,99916.62
2023-01-03T06:53:56.601Z,99917.61
2023-01-03T06:54:59.907Z,99913.20
2023-01-03T06:56:02.914Z,99918.69
2023-01-03T06:57:05.591Z,99918.69
2023-01-03T06:58:08.715Z,99919.76
2023-01-03T06:59:11.149Z,99920.61
2023-01-03T07:00:16.186Z,99922.44
2023-01-03T07:01:18.955Z,99923.28
2023-01-03T07:02:22.476Z,99932.20
2023-01-03T07:03:25.102Z,99926.84
2023-01-03T07:04:27.613Z,99924.05
2023-01-03T07:05:31.292Z,99926.73
2023-01-03T07:07:48.725Z,99919.60
2023-01-03T07:08:52.448Z,99911.48
2023-01-03T07:09:55.609Z,99914.17
2023-01-03T07:10:59.175Z,99913.20
2023-01-03T07:12:04.556Z,99911.38
2023-01-03T07:13:25.503Z,99907.84
2023-01-03T07:14:28.565Z,99905.05
2023-01-03T07:15:32.593Z,99906.89
2023-01-03T07:16:38.074Z,99907.73
2023-01-03T07:17:40.682Z,99896.16
2023-01-03T07:18:44.999Z,99898.84
2023-01-03T07:19:47.847Z,99904.20
2023-01-03T07:20:50.696Z,99919.42
2023-01-03T07:21:54.027Z,99922.98
2023-01-03T07:22:56.416Z,99925.66
2023-01-03T07:25:33.459Z,99928.41
2023-01-03T07:26:35.950Z,99934.55
2023-01-03T07:27:38.385Z,99933.70
2023-01-03T07:28:42.087Z,99938.19
2023-01-03T07:29:45.610Z,99947.11
2023-01-03T07:30:49.465Z,99943.55
2023-01-03T07:31:52.072Z,99945.27
2023-01-03T07:32:56.223Z,99943.55
2023-01-03T07:33:59.098Z,99939.91
2023-01-03T07:35:01.797Z,99945.27
2023-01-03T07:36:11.489Z,99946.12
2023-01-03T07:37:10.880Z,99947.95
2023-01-03T07:38:13.706Z,99946.12
2023-01-03T07:39:16.138Z,99947.95
2023-01-03T07:40:20.716Z,99953.31
2023-01-03T07:41:25.172Z,99952.47
2023-01-03T07:42:45.876Z,99959.64
2023-01-03T07:43:48.844Z,99964.05
2023-01-03T07:44:51.399Z,99962.32
2023-01-03T07:45:53.804Z,99952.55
2023-01-03T07:46:56.344Z,99959.64
2023-01-03T07:47:58.897Z,99970.37
2023-01-03T07:49:06.392Z,99956.11
2023-01-03T07:50:09.160Z,99954.28
2023-01-03T07:51:13.148Z,99965.88
2023-01-03T07:52:16.132Z,99966.84
2023-01-03T07:53:18.507Z,99967.69
2023-01-03T07:54:22.024Z,99973.05
2023-01-03T07:55:24.553Z,99958.80
2023-01-03T07:56:29.582Z,99963.20
2023-01-03T07:57:32.359Z,99960.94
2023-01-03T07:58:36.096Z,99960.94
2023-01-03T07:59:40.315Z,99971.24
2023-01-03T08:00:43.092Z,99968.56
2023-01-03T08:01:46.492Z,99963.20
2023-01-03T08:02:54.281Z,99965.88
2023-01-03T08:03:57.878Z,99960.52
2023-01-03T08:05:00.472Z,99963.20
2023-01-03T08:06:05.102Z,99963.20
2023-01-03T08:07:07.630Z,99980.98
2023-01-03T08:08:11.403Z,99965.88
2023-01-03T08:09:32.795Z,99958.68
2023-01-03T08:10:55.224Z,99956.00
2023-01-03T08:12:17.205Z,99955.16
2023-01-03T08:13:19.748Z,99945.39
2023-01-03T08:14:26.213Z,99957.92
2023-01-03T08:15:27.445Z,99951.82
2023-01-03T08:16:31.154Z,99948.30
2023-01-03T08:17:34.908Z,99943.89
2023-01-03T08:18:38.260Z,99951.06
2023-01-03T08:19:45.569Z,99948.37
2023-01-03T08:20:46.076Z,99953.74
2023-01-03T08:21:50.041Z,99951.94
2023-01-03T08:22:53.880Z,99951.94
2023-01-03T08:23:56.374Z,99947.42
2023-01-03T08:24:59.556Z,99940.25
2023-01-03T08:26:05.121Z,99950.98
2023-01-03T08:27:07.648Z,99942.94
2023-01-03T08:28:10.365Z,99948.30
2023-01-03T08:29:12.654Z,99956.23
2023-01-03T08:30:18.614Z,99959.75
2023-01-03T08:31:22.160Z,99960.59
2023-01-03T08:32:25.948Z,99951.59
2023-01-03T08:33:31.229Z,99949.79
2023-01-03T08:34:35.762Z,99946.12
2023-01-03T08:35:39.333Z,99953.20
2023-01-03T08:36:46.185Z,99948.69
2023-01-03T08:37:50.224Z,99954.05
2023-01-03T08:38:58.320Z,99944.20
2023-01-03T08:40:03.019Z,99955.77
2023-01-03T08:41:06.348Z,99939.68
2023-01-03T08:42:08.917Z,99940.56
2023-01-03T08:43:11.553Z,99945.92
2023-01-03T08:44:14.011Z,99936.38
2023-01-03T08:45:17.140Z,99936.38
2023-01-03T08:46:20.360Z,99946.65
2023-01-03T08:47:23.007Z,99945.81
2023-01-03T08:48:25.511Z,99959.22
2023-01-03T08:49:28.061Z,99951.17
2023-01-03T08:50:31.518Z,99941.29
2023-01-03T08:51:34.119Z,99945.69
2023-01-03T08:52:37.012Z,99939.45
2023-01-03T08:53:40.170Z,99939.45
2023-01-03T08:54:43.514Z,99932.28
2023-01-03T08:55:47.147Z,99934.09
2023-01-03T08:56:50.527Z,99936.77
2023-01-03T08:57:54.261Z,99942.13
2023-01-03T08:58:57.213Z,99945.69
2023-01-03T08:59:59.573Z,99948.37
2023-01-03T09:01:04.129Z,99951.90
2023-01-03T09:02:07.040Z,99951.90
2023-01-03T09:03:10.542Z,99962.74
2023-01-03T09:04:13.301Z,99954.39
2023-01-03T09:05:16.453Z,99945.05
2023-01-03T09:06:19.135Z,99943.67
2023-01-03T09:07:21.947Z,99944.09
2023-01-03T09:08:24.378Z,99934.89
2023-01-03T09:09:26.759Z,99934.89
2023-01-03T09:10:29.447Z,99933.16
2023-01-03T09:11:32.099Z,99951.92
2023-01-03T09:12:34.481Z,99940.70
2023-01-03T09:13:37.884Z,99951.09
2023-01-03T09:14:40.765Z,99958.06
2023-01-03T09:15:43.416Z,99951.51
2023-01-03T09:16:49.364Z,99958.81
2023-01-03T09:17:50.406Z,99950.45
2023-01-03T09:18:52.699Z,99936.95
2023-01-03T09:19:55.427Z,99929.98
2023-01-03T09:20:58.576Z,99929.02
2023-01-03T09:22:01.734Z,99935.33
2023-01-03T09:23:04.687Z,99936.73
2023-01-03T09:24:09.397Z,99942.19
2023-01-03T09:25:12.401Z,99932.33
2023-01-03T09:26:15.690Z,99932.06
2023-01-03T09:27:18.305Z,99945.97
2023-01-03T09:28:20.844Z,99936.72
2023-01-03T09:29:23.545Z,99936.72
2023-01-03T09:30:26.863Z,99944.06
2023-01-03T09:31:32.001Z,99930.67
2023-01-03T09:32:34.777Z,99940.67
2023-01-03T09:33:37.107Z,99943.77
2023-01-03T09:34:39.414Z,99930.95
2023-01-03T09:35:42.792Z,99943.38
2023-01-03T09:36:45.783Z,99931.41
2023-01-03T09:37:50.433Z,99921.48
2023-01-03T09:38:53.308Z,99921.48
2023-01-03T09:39:55.714Z,99919.27
2023-01-03T09:42:52.209Z,99922.23
2023-01-03T09:44:00.932Z,99922.75
2023-01-03T09:45:04.048Z,99926.28
2023-01-03T09:46:09.976Z,99912.69
2023-01-03T09:47:23.176Z,99925.22
2023-01-03T09:48:34.319Z,99930.78
2023-01-03T09:49:41.127Z,99919.23
2023-01-03T09:51:15.001Z,99922.86
2023-01-03T09:52:05.639Z,99922.97
2023-01-03T09:53:33.489Z,99926.38
2023-01-03T09:55:00.523Z,99923.50
2023-01-03T09:56:21.881Z,99921.38
2023-01-03T09:57:51.467Z,99923.84
2023-01-03T09:59:14.708Z,99918.04
2023-01-03T10:00:43.220Z,99938.28
2023-01-03T10:02:11.520Z,99926.48
2023-01-03T10:03:42.175Z,99915.22
2023-01-03T10:06:35.778Z,99909.83
2023-01-03T10:09:26.316Z,99905.98
2023-01-03T10:12:21.632Z,99906.83
2023-01-03T10:15:09.071Z,99903.31
2023-01-03T10:16:27.849Z,99898.44
2023-01-03T10:17:44.300Z,99914.88
2023-01-03T10:18:58.998Z,99895.20
2023-01-03T10:21:44.912Z,99894.94
2023-01-03T10:22:49.029Z,99898.11
2023-01-03T10:23:52.930Z,99905.93
2023-01-03T10:25:14.198Z,99911.28
2023-01-03T10:26:17.813Z,99906.03
2023-01-03T10:27:22.477Z,99887.63
2023-01-03T10:28:28.635Z,99894.70
2023-01-03T10:29:31.145Z,99897.27
2023-01-03T10:31:12.535Z,99909.77
2023-01-03T10:32:42.493Z,99904.42
2023-01-03T10:33:46.270Z,99895.44
2023-01-03T10:36:26.233Z,99890.99
2023-01-03T10:37:29.161Z,99895.33
2023-01-03T10:38:34.276Z,99906.91
2023-01-03T10:39:36.061Z,99901.67
2023-01-03T10:40:41.570Z,99910.75
2023-01-03T10:41:45.959Z,99910.75
2023-01-03T10:42:49.780Z,99911.70
2023-01-03T10:44:00.748Z,99918.22
2023-01-03T10:45:05.948Z,99901.32
2023-01-03T10:46:17.349Z,99906.45
2023-01-03T10:47:20.133Z,99912.45
2023-01-03T10:48:23.773Z,99912.38
2023-01-03T10:49:30.099Z,99906.91
2023-01-03T10:50:36.059Z,99922.86
2023-01-03T10:51:45.441Z,99914.73
2023-01-03T10:52:49.215Z,99918.36
2023-01-03T10:53:53.055Z,99930.89
2023-01-03T10:54:59.266Z,99924.66
2023-01-03T10:56:02.055Z,99929.27
2023-01-03T10:57:05.146Z,99930.33
2023-01-03T10:58:27.988Z,99942.08
2023-01-03T10:59:30.521Z,99932.55
2023-01-03T11:00:37.224Z,99935.22
2023-01-03T11:01:40.094Z,99951.38
2023-01-03T11:02:44.287Z,99936.94
2023-01-03T11:05:25.396Z,99968.56
2023-01-03T11:06:29.159Z,99981.21
2023-01-03T11:07:31.916Z,99947.66
2023-01-03T11:08:44.115Z,99940.02
2023-01-03T11:09:52.518Z,99940.33
2023-01-03T11:10:57.560Z,99968.33
2023-01-03T11:13:40.097Z,99953.97
2023-01-03T11:14:55.102Z,99959.16
2023-01-03T11:15:59.045Z,99951.41
2023-01-03T11:17:03.501Z,99955.91
2023-01-03T11:18:17.952Z,99952.39
2023-01-03T11:19:20.427Z,99954.75
2023-01-03T11:20:42.674Z,99959.80
2023-01-03T11:23:18.730Z,99950.34
2023-01-03T11:24:38.001Z,99958.95
2023-01-03T11:26:02.571Z,99940.44
2023-01-03T11:27:21.153Z,99950.56
2023-01-03T11:28:50.682Z,99964.23
2023-01-03T11:29:59.844Z,99974.45
2023-01-03T11:31:06.769Z,99970.45
2023-01-03T11:32:34.297Z,99961.66
2023-01-03T11:35:23.415Z,99955.74
2023-01-03T11:36:28.519Z,99946.30
2023-01-03T11:37:42.028Z,99944.50
2023-01-03T11:38:53.936Z,99971.88
2023-01-03T11:41:50.322Z,99956.64
2023-01-03T11:43:02.160Z,99969.71
2023-01-03T11:44:40.677Z,99960.52
2023-01-03T11:45:58.548Z,99960.16
2023-01-03T11:48:20.177Z,99962.14
2023-01-03T11:49:26.367Z,99960.61
2023-01-03T11:50:50.270Z,99990.49
2023-01-03T11:52:19.737Z,99971.37
2023-01-03T11:53:36.315Z,99976.25
2023-01-03T11:55:01.126Z,99982.91
2023-01-03T11:56:30.900Z,99986.91
2023-01-03T11:58:01.472Z,99992.83
2023-01-03T11:59:13.353Z,99987.09
2023-01-03T12:00:37.759Z,99979.64
2023-01-03T12:02:12.060Z,99977.64
2023-01-03T12:03:35.356Z,99975.60
2023-01-03T12:04:58.764Z,99970.92
2023-01-03T12:06:17.368Z,99997.47
2023-01-03T12:07:46.899Z,99971.37
2023-01-03T12:08:40.327Z,99980.05
2023-01-03T12:10:02.013Z,99969.13
2023-01-03T12:11:16.768Z,99975.15
2023-01-03T12:12:52.325Z,99957.19
2023-01-03T12:15:22.652Z,99962.34
2023-01-03T12:18:01.009Z,99971.67
2023-01-03T12:19:12.695Z,99969.64
2023-01-03T12:20:24.151Z,99978.41
2023-01-03T12:21:35.043Z,99969.33
2023-01-03T12:22:39.666Z,99972.63
2023-01-03T12:23:45.338Z,99973.30
2023-01-03T12:24:52.523Z,99976.74
2023-01-03T12:25:57.647Z,99965.81
2023-01-03T12:27:07.707Z,99963.87
2023-01-03T12:29:48.462Z,99969.83
2023-01-03T12:31:02.110Z,99966.81
2023-01-03T12:33:50.593Z,99965.68
2023-01-03T12:35:22.647Z,99963.63
2023-01-03T12:36:42.588Z,99965.23
2023-01-03T12:37:46.677Z,99960.61
2023-01-03T12:39:05.578Z,99964.17
2023-01-03T12:40:22.216Z,99964.91
2023-01-03T12:41:56.923Z,99979.15
2023-01-03T12:44:21.648Z,99965.56
2023-01-03T12:46:58.014Z,99978.19
2023-01-03T12:48:04.273Z,99989.45
2023-01-03T12:49:13.928Z,99969.60
2023-01-03T12:52:00.982Z,99988.13
2023-01-03T12:53:12.924Z,99979.84
2023-01-03T12:55:44.626Z,99971.44
2023-01-03T12:57:04.071Z,99979.20
2023-01-03T12:59:41.964Z,99976.09
2023-01-03T13:00:58.221Z,99980.38
2023-01-03T13:02:07.602Z,99973.41
2023-01-03T13:03:19.955Z,99976.19
2023-01-03T13:04:33.284Z,99988.63
2023-01-03T13:05:50.723Z,99996.66
2023-01-03T13:08:22.048Z,99987.00
2023-01-03T13:09:35.732Z,100004.84
2023-01-03T13:10:40.931Z,100001.42
2023-01-03T13:11:49.829Z,100019.17
2023-01-03T13:12:52.683Z,99997.66
2023-01-03T13:13:59.481Z,99996.17
2023-01-03T13:15:15.875Z,100003.42
2023-01-03T13:16:37.987Z,100011.56
2023-01-03T13:19:20.053Z,100006.95
2023-01-03T13:20:31.459Z,100026.31
2023-01-03T13:21:55.201Z,100024.13
2023-01-03T13:23:16.806Z,100025.38
2023-01-03T13:24:42.249Z,100027.11
2023-01-03T13:25:44.999Z,100031.51
2023-01-03T13:28:24.330Z,100038.28
2023-01-03T13:29:41.359Z,100028.27
2023-01-03T13:30:44.766Z,100028.16
2023-01-03T13:33:24.033Z,100038.38
2023-01-03T13:34:34.098Z,100041.84
2023-01-03T13:35:47.364Z,100035.35
2023-01-03T13:37:09.762Z,100054.18
2023-01-03T13:38:35.732Z,100065.66
2023-01-03T13:42:02.764Z,100041.17
2023-01-03T13:44:28.581Z,100048.45
2023-01-03T13:45:34.700Z,100038.50
2023-01-03T13:46:38.798Z,100049.09
2023-01-03T13:49:05.118Z,100049.20
2023-01-03T13:50:26.377Z,100050.83
2023-01-03T13:51:42.356Z,100054.18
2023-01-03T13:53:12.691Z,100047.67
2023-01-03T13:54:19.167Z,100053.70
2023-01-03T13:55:54.580Z,100057.80
2023-01-03T13:56:58.125Z,100051.23
2023-01-03T13:58:00.467Z,100048.16
2023-01-03T13:59:24.172Z,100076.41
2023-01-03T14:00:26.757Z,100061.41
2023-01-03T14:01:49.468Z,100077.37
2023-01-03T14:04:53.236Z,100081.00
2023-01-03T14:07:53.458Z,100069.75
2023-01-03T14:11:12.240Z,100077.94
2023-01-03T14:12:37.034Z,100072.30
2023-01-03T14:13:46.495Z,100088.63
2023-01-03T14:14:54.952Z,100064.84
2023-01-03T14:17:31.137Z,100082.78
2023-01-03T14:18:33.867Z,100093.16
2023-01-03T14:19:36.273Z,100083.34
2023-01-03T14:20:38.760Z,100089.35
2023-01-03T14:22:21.111Z,100107.01
2023-01-03T14:23:31.732Z,100092.52